Latest Coastal Weather Observations for Melbourne (Olympic Park)

IDV60701

Issued at 9:51 pm EDT Tuesday 17 January 2017 (issued every 10 minutes, with the page automatically refreshed every 10 minutes)

About coastal observations | Map of coastal stations | Coastal observations for VIC | Marine services | Other Formats
Station Details ID: 086338 Name: MELBOURNE (OLYMPIC PARK) Lat: -37.83 Lon: 144.98 Height: 7.53 m
Data from the previous 72 hours. | See also: Recent months at Melbourne (Olympic Park)
Date/Time
EDT
Temp
°C
Wind Pressure Rain since
9am
mm
Weather Cloud Vis
km
Sea
Height
m
Swell
Dir  Spd
kts
Gust
kts
hPa Trend Height
m
Period
s
Dir
17/09:30pm 24.0 SSW 7 12 1008.5 - 0.0 - - 10 - - - -
17/09:00pm 23.8 SSW 8 15 1007.5 - 0.0 - - 10 - - - -
17/08:30pm 23.9 SW 6 11 1006.9 - 0.0 - - 10 - - - -
17/08:00pm 24.2 SW 7 14 1005.6 - 0.0 - - 10 - - - -
17/07:30pm 25.9 SSW 6 9 1004.6 - 0.0 - - 10 - - - -
17/07:00pm 28.2 SSW 6 11 1004.1 - 0.0 - - 10 - - - -
17/06:30pm 32.7 S 5 11 1003.9 - 0.0 - - 10 - - - -
17/06:00pm 32.4 S 7 13 1003.9 - 0.0 - - 10 - - - -
17/05:30pm 33.7 S 7 13 1004.0 - 0.0 - - 10 - - - -
17/05:03pm 35.2 S 8 20 1004.0 - 0.0 - - 10 - - - -
17/05:00pm 37.4 SSE 6 10 1004.0 - 0.0 - - 10 - - - -
17/04:30pm 36.7 S 3 7 1004.4 - 0.0 - - 10 - - - -
17/04:00pm 36.3 SSE 4 7 1005.0 - 0.0 - - 10 - - - -
17/03:30pm 35.2 S 6 10 1005.6 - 0.0 - - 10 - - - -
17/03:00pm 34.5 S 4 8 1006.2 - 0.0 - - 10 - - - -
17/02:30pm 34.3 S 5 9 1006.3 - 0.0 - - 10 - - - -
17/02:00pm 33.1 SSW 6 11 1006.8 - 0.0 - - 10 - - - -
17/01:30pm 32.2 SSW 6 13 1007.4 - 0.0 - - 10 - - - -
17/01:00pm 29.9 SSW 8 13 1007.5 - 0.0 - - 10 - - - -
17/12:30pm 30.9 SSW 7 14 1007.3 - 0.0 - - 10 - - - -
17/12:00pm 35.4 NNW 9 14 1007.0 - 0.0 - - 10 - - - -
17/11:30am 34.6 NNW 11 18 1007.3 - 0.0 - - 10 - - - -
17/11:00am 33.2 NNW 10 14 1007.8 - 0.0 - - 10 - - - -
17/10:30am 31.5 NNW 7 13 1008.1 - 0.0 - - 10 - - - -
17/10:00am 29.8 N 5 10 1008.3 - 0.0 - - 10 - - - -
17/09:30am 27.1 CALM 0 0 1008.8 - 0.0 - - 10 - - - -
17/09:00am 25.4 S 6 11 1009.5 - 0.0 - - 10 - - - -
17/08:30am 25.4 CALM 0 0 1009.1 - 0.0 - - 10 - - - -
17/08:00am 25.0 CALM 0 2 1009.2 - 0.0 - - 10 - - - -
17/07:30am 23.2 CALM 0 0 1009.1 - 0.0 - - 10 - - - -
17/07:00am 22.6 SSW 2 6 1008.9 - 0.0 - - 10 - - - -
17/06:30am 23.3 SSW 3 5 1008.3 - 0.0 - - 10 - - - -
17/06:00am 24.6 NNW 4 6 1007.9 - 0.0 - - 10 - - - -
17/05:30am 24.9 N 7 9 1007.4 - 0.0 - - 10 - - - -
17/05:00am 24.8 N 7 10 1007.1 - 0.0 - - 10 - - - -
17/04:30am 25.4 N 7 10 1007.2 - 0.0 - - 10 - - - -
17/04:00am 22.6 NNE 4 6 1007.2 - 0.0 - - 10 - - - -
17/03:30am 22.7 NNE 5 6 1007.4 - 0.0 - - 10 - - - -
17/03:00am 22.2 NNE 5 6 1007.6 - 0.0 - - 10 - - - -
17/02:30am 22.2 NNE 4 6 1007.8 - 0.0 - - 10 - - - -
17/02:00am 22.6 NNE 4 6 1007.9 - 0.0 - - 10 - - - -
17/01:30am 22.8 N 4 6 1008.4 - 0.0 - - 10 - - - -
17/01:00am 20.7 CALM 0 0 1009.0 - 0.0 - - 10 - - - -
17/12:30am 21.6 CALM 0 0 1009.3 - 0.0 - - 10 - - - -
17/12:00am 22.5 WNW 1 6 1009.5 - 0.0 - - 10 - - - -
 
Date/Time
EDT
Temp
°C
Wind Pressure Rain since
9am
mm
Weather Cloud Vis
km
Sea
Height
m
Swell
Dir  Spd
kts
Gust
kts
hPa Trend Height
m
Period
s
Dir
16/11:30pm 23.0 CALM 0 0 1009.8 - 0.0 - - 10 - - - -
16/11:00pm 23.8 SSW 5 10 1009.9 - 0.0 - - 10 - - - -
16/10:30pm 23.1 CALM 0 0 1009.6 - 0.0 - - 10 - - - -
16/10:00pm 24.8 E 1 5 1009.5 - 0.0 - - 10 - - - -
16/09:30pm 25.7 CALM 0 3 1009.7 - 0.0 - - 10 - - - -
16/09:00pm 27.5 SE 2 5 1009.6 - 0.0 - - 10 - - - -
16/08:30pm 28.2 S 2 7 1009.7 - 0.0 - - 10 - - - -
16/08:00pm 28.7 S 4 8 1009.6 - 0.0 - - 10 - - - -
16/07:30pm 27.4 CALM 0 3 1009.8 - 0.0 - - 10 - - - -
16/07:00pm 27.6 W 3 6 1009.4 - 0.0 - - 10 - - - -
16/06:30pm 31.4 SW 3 7 1009.2 - 0.0 - - 10 - - - -
16/06:00pm 31.5 WSW 3 6 1009.2 - 0.0 - - 10 - - - -
16/05:30pm 32.0 SW 4 7 1009.6 - 0.0 - - 10 - - - -
16/05:00pm 31.7 SW 4 7 1009.8 - 0.0 - - 10 - - - -
16/04:30pm 30.2 SSW 5 9 1010.1 - 0.0 - - 10 - - - -
16/04:00pm 28.8 SW 7 10 1010.7 - 0.0 - - 10 - - - -
16/03:30pm 30.1 SW 4 7 1011.0 - 0.0 - - 10 - - - -
16/03:00pm 30.6 SSW 4 8 1011.4 - 0.0 - - 10 - - - -
16/02:30pm 29.8 SSW 5 9 1011.9 - 0.0 - - 10 - - - -
16/02:00pm 29.0 S 6 9 1012.5 - 0.0 - - 10 - - - -
16/01:30pm 26.8 S 5 7 1013.2 - 0.0 - - 10 - - - -
16/01:00pm 26.6 NNE 3 7 1013.6 - 0.0 - - 10 - - - -
16/12:30pm 25.6 ENE 4 8 1013.9 - 0.0 - - 10 - - - -
16/12:00pm 24.2 S 3 6 1014.3 - 0.0 - - 10 - - - -
16/11:30am 22.8 NNE 2 5 1014.9 - 0.0 - - 10 - - - -
16/11:00am 21.2 WSW 1 5 1015.4 - 0.0 - - 10 - - - -
16/10:30am 19.8 NNE 4 7 1015.6 - 0.0 - - 10 - - - -
16/10:00am 18.8 ENE 5 8 1015.6 - 0.0 - - 10 - - - -
16/09:30am 17.5 NE 5 9 1015.9 - 0.0 - - 10 - - - -
16/09:00am 16.5 N 5 7 1016.3 - 0.0 - - 10 - - - -
16/08:30am 15.8 NNE 5 7 1016.4 - 0.0 - - 10 - - - -
16/08:00am 14.6 NNE 5 7 1016.4 - 0.0 - - 10 - - - -
16/07:30am 13.6 NNE 3 6 1016.3 - 0.0 - - 10 - - - -
16/07:00am 13.0 NNE 2 4 1016.2 - 0.0 - - 10 - - - -
16/06:30am 12.6 NE 3 5 1015.9 - 0.0 - - 10 - - - -
16/06:00am 12.4 CALM 0 0 1015.9 - 0.0 - - 10 - - - -
16/05:30am 12.3 CALM 0 0 1015.9 - 0.0 - - 10 - - - -
16/05:00am 12.9 CALM 0 0 1015.6 - 0.0 - - 10 - - - -
16/04:30am 13.3 CALM 0 0 1015.6 - 0.0 - - 10 - - - -
16/04:00am 13.7 CALM 0 0 1015.4 - 0.0 - - 10 - - - -
16/03:30am 13.9 ESE 1 4 1015.4 - 0.0 - - 10 - - - -
16/03:00am 14.0 CALM 0 0 1015.8 - 0.0 - - 10 - - - -
16/02:30am 14.6 SE 3 6 1015.8 - 0.0 - - 10 - - - -
16/02:00am 14.8 SSE 2 6 1016.2 - 0.0 - - 10 - - - -
16/01:30am 14.9 SSE 4 7 1016.5 - 0.0 - - 10 - - - -
16/01:00am 15.1 SSE 2 6 1016.8 - 0.0 - - 10 - - - -
16/12:30am 15.3 S 2 5 1016.9 - 0.0 - - 10 - - - -
16/12:00am 15.6 SSE 5 7 1017.2 - 0.0 - - 10 - - - -
 
Date/Time
EDT
Temp
°C
Wind Pressure Rain since
9am
mm
Weather Cloud Vis
km
Sea
Height
m
Swell
Dir  Spd
kts
Gust
kts
hPa Trend Height
m
Period
s
Dir
15/11:30pm 15.8 SSE 3 7 1017.3 - 0.0 - - 10 - - - -
15/11:00pm 16.2 S 4 7 1017.3 - 0.0 - - 10 - - - -
15/10:30pm 16.7 SSE 4 7 1017.5 - 0.0 - - 10 - - - -
15/10:00pm 17.1 SSE 5 8 1017.5 - 0.0 - - 10 - - - -
15/09:30pm 17.3 S 4 7 1017.5 - 0.0 - - 10 - - - -
15/09:00pm 17.6 SSW 5 9 1017.6 - 0.0 - - 10 - - - -
15/08:30pm 17.9 SSW 6 11 1017.6 - 0.0 - - 10 - - - -
15/08:00pm 18.7 S 6 12 1017.3 - 0.0 - - 10 - - - -
15/07:30pm 19.2 SSW 7 12 1017.2 - 0.0 - - 10 - - - -
15/07:00pm 19.2 SSW 7 13 1017.2 - 0.0 - - 10 - - - -
15/06:30pm 20.0 SSW 7 14 1017.3 - 0.0 - - 10 - - - -
15/06:00pm 19.9 SSW 8 12 1017.3 - 0.0 - - 10 - - - -
15/05:30pm 20.0 SSW 9 14 1017.2 - 0.0 - - 10 - - - -
15/05:00pm 21.0 S 6 11 1017.3 - 0.0 - - 10 - - - -
15/04:30pm 21.0 SSW 6 9 1017.5 - 0.0 - - 10 - - - -
15/04:00pm 21.1 SSW 6 10 1017.7 - 0.0 - - 10 - - - -
15/03:30pm 20.5 S 6 11 1017.7 - 0.0 - - 10 - - - -
15/03:00pm 20.7 S 5 10 1018.2 - 0.0 - - 10 - - - -
15/02:30pm 19.7 SSW 7 11 1018.3 - 0.0 - - 10 - - - -
15/02:00pm 19.8 SSW 6 9 1018.4 - 0.0 - - 10 - - - -
15/01:30pm 19.7 S 6 9 1018.8 - 0.0 - - 10 - - - -
15/01:00pm 19.3 SSE 6 13 1019.0 - 0.0 - - 10 - - - -
15/12:30pm 18.1 S 6 10 1019.1 - 0.0 - - 10 - - - -
15/12:00pm 18.1 SSW 5 10 1019.1 - 0.0 - - 10 - - - -
15/11:30am 17.8 SW 4 7 1019.0 - 0.0 - - 10 - - - -
15/11:00am 17.5 WSW 2 7 1019.0 - 0.0 - - 10 - - - -
15/10:30am 17.2 SSW 4 8 1019.2 - 0.0 - - 10 - - - -
15/10:00am 16.7 SSW 3 8 1019.2 - 0.0 - - 10 - - - -
15/09:30am 16.8 SW 3 6 1019.0 - 0.0 - - 10 - - - -
15/09:00am 16.5 SSW 5 11 1018.8 - 0.0 - - 10 - - - -
15/08:30am 15.9 WSW 3 7 1018.7 - 0.0 - - 10 - - - -
15/08:00am 15.7 WSW 3 7 1018.4 - 0.0 - - 10 - - - -
15/07:30am 15.7 WSW 4 9 1017.9 - 0.0 - - 10 - - - -
15/07:00am 15.8 SW 5 10 1017.8 - 0.0 - - 10 - - - -
15/06:30am 15.3 W 5 8 1017.6 - 0.0 - - 10 - - - -
15/06:00am 15.4 W 5 9 1017.4 - 0.0 - - 10 - - - -
15/05:30am 15.4 W 3 6 1017.1 - 0.0 - - 10 - - - -
15/05:00am 15.3 WNW 5 9 1016.8 - 0.0 - - 10 - - - -
15/04:30am 15.5 W 5 9 1016.6 - 0.0 - - 10 - - - -
15/04:00am 15.6 W 5 11 1016.3 - 0.0 - - 10 - - - -
15/03:30am 15.5 WNW 5 9 1016.0 - 0.0 - - 10 - - - -
15/03:00am 15.7 W 4 9 1016.1 - 0.0 - - 10 - - - -
15/02:30am 15.8 W 4 7 1016.1 - 0.0 - - 10 - - - -
15/02:00am 15.8 W 4 8 1016.4 - 0.0 - - 10 - - - -
15/01:30am 15.9 W 5 9 1016.4 - 0.0 - - 10 - - - -
15/01:00am 16.3 WSW 5 9 1016.4 - 0.0 - - 10 - - - -
15/12:30am 17.0 SSW 5 9 1016.3 - 0.0 - - 10 - - - -
15/12:00am 16.4 WSW 3 7 1016.4 - 0.0 - - 10 - - - -
 
Date/Time
EDT
Temp
°C
Wind Pressure Rain since
9am
mm
Weather Cloud Vis
km
Sea
Height
m
Swell
Dir  Spd
kts
Gust
kts
hPa Trend Height
m
Period
s
Dir
14/11:30pm 16.6 WSW 5 10 1016.2 - 0.0 - - 10 - - - -
14/11:00pm 17.3 SSW 7 14 1016.0 - 0.0 - - 10 - - - -
14/10:30pm 17.7 SW 8 16 1015.9 - 0.0 - - 10 - - - -
14/10:00pm 18.0 SW 6 11 1015.6 - 0.0 - - 10 - - - -

Other Formats:

Comma delimited format used in spreadsheet applications
http://www.bom.gov.au/fwo/IDV60701/IDV60701.95936.axf

JavaScript Object Notation format (JSON) in row-major order
http://www.bom.gov.au/fwo/IDV60701/IDV60701.95936.json